Terminal Aerodrome Forecast
Issued by NWS

Home | Current Version | Previous Version | Text Only | Print | Product List | Glossary Off
Versions: 1 2 3 4 5 6 7 8 9 10 11 12 13 14 15 16 17 18 19 20 21 22 23 24 25 26 27 28 29 30

000
FTUS43 KLOT 300500
TAFORD
TAF
KORD 300532Z 3006/3112 27003KT P6SM SCT250
     FM301400 23005KT P6SM BKN250
     FM301900 25007KT P6SM SCT040 BKN100
     FM302300 27004KT P6SM SCT035 OVC060
     FM310500 34012KT P6SM BKN012 OVC025
     FM310700 33014G28KT P6SM OVC012=

USA.gov is the U.S. government's official web portal to all federal, state and local government web resources and services.